createdAt,value
2018-09-15T00:00:55.183Z,6.53
2018-09-15T00:03:24.692Z,6.00
2018-09-15T00:05:53.536Z,5.60
2018-09-15T00:08:22.420Z,6.23
2018-09-15T00:10:51.685Z,6.10
2018-09-15T00:13:21.719Z,6.67
2018-09-15T00:15:50.538Z,5.90
2018-09-15T00:18:20.067Z,6.63
2018-09-15T00:20:48.943Z,6.60
2018-09-15T00:23:17.825Z,6.73
2018-09-15T00:25:46.801Z,6.30
2018-09-15T00:28:15.596Z,6.03
2018-09-15T00:30:44.479Z,6.60
2018-09-15T00:33:13.807Z,6.63
2018-09-15T00:35:42.608Z,6.37
2018-09-15T00:38:11.464Z,6.90
2018-09-15T00:40:40.689Z,6.80
2018-09-15T00:43:09.430Z,6.23
2018-09-15T00:45:38.323Z,6.27
2018-09-15T00:48:07.157Z,6.37
2018-09-15T00:50:36.011Z,7.40
2018-09-15T00:53:04.824Z,6.30
2018-09-15T00:55:33.996Z,6.00
2018-09-15T00:58:02.876Z,6.50
2018-09-15T01:00:31.758Z,6.27
2018-09-15T01:03:00.991Z,6.50
2018-09-15T01:05:29.847Z,6.40
2018-09-15T01:07:58.789Z,6.80
2018-09-15T01:10:28.175Z,5.83
2018-09-15T01:12:56.946Z,6.13
2018-09-15T01:15:25.702Z,5.93
2018-09-15T01:17:55.025Z,5.93
2018-09-15T01:20:23.867Z,6.20
2018-09-15T01:22:52.741Z,6.30
2018-09-15T01:25:21.576Z,6.40
2018-09-15T01:27:50.602Z,6.70
2018-09-15T01:30:19.449Z,6.30
2018-09-15T01:32:48.763Z,6.93
2018-09-15T01:35:17.569Z,6.37
2018-09-15T01:37:46.420Z,6.97
2018-09-15T01:40:15.290Z,6.70
2018-09-15T01:42:44.068Z,7.00
2018-09-15T01:45:12.872Z,7.03
2018-09-15T01:47:42.079Z,6.70
2018-09-15T01:50:11.005Z,6.20
2018-09-15T01:52:39.884Z,6.47
2018-09-15T01:55:08.954Z,7.00
2018-09-15T01:57:37.973Z,7.43
2018-09-15T02:00:06.899Z,6.83
2018-09-15T02:02:36.045Z,6.23
2018-09-15T02:05:04.926Z,7.57
2018-09-15T02:07:33.662Z,8.00
2018-09-15T02:10:02.509Z,6.87
2018-09-15T02:12:31.343Z,7.40
2018-09-15T02:15:00.292Z,7.03
2018-09-15T02:17:29.559Z,7.60
2018-09-15T02:19:58.355Z,7.50
2018-09-15T02:22:27.224Z,7.50
2018-09-15T02:24:56.442Z,7.20
2018-09-15T02:27:25.367Z,7.50
2018-09-15T02:29:54.251Z,6.77
2018-09-15T02:32:23.152Z,7.80
2018-09-15T02:34:51.944Z,7.97
2018-09-15T02:37:20.715Z,7.30
2018-09-15T02:39:49.969Z,8.03
2018-09-15T02:42:18.855Z,7.40
2018-09-15T02:44:47.659Z,8.40
2018-09-15T02:47:16.851Z,7.83
2018-09-15T02:49:45.629Z,7.60
2018-09-15T02:52:14.444Z,7.40
2018-09-15T02:54:43.727Z,7.90
2018-09-15T02:57:12.523Z,7.90
2018-09-15T02:59:41.207Z,7.50
2018-09-15T03:02:10.360Z,6.73
2018-09-15T03:04:39.196Z,6.17
2018-09-15T03:07:08.055Z,7.07
2018-09-15T03:09:37.242Z,6.70
2018-09-15T03:12:06.004Z,7.13
2018-09-15T03:14:34.892Z,7.00
2018-09-15T03:17:04.104Z,7.00
2018-09-15T03:19:32.939Z,6.50
2018-09-15T03:22:01.808Z,7.03
2018-09-15T03:24:31.009Z,6.47
2018-09-15T03:26:59.898Z,6.30
2018-09-15T03:29:28.709Z,6.97
2018-09-15T03:31:57.962Z,6.30
2018-09-15T03:34:26.785Z,5.80
2018-09-15T03:36:55.745Z,7.10
2018-09-15T03:39:24.714Z,6.57
2018-09-15T03:41:53.595Z,7.10
2018-09-15T03:44:22.749Z,6.60
2018-09-15T03:46:51.628Z,6.53
2018-09-15T03:49:20.437Z,6.87
2018-09-15T03:51:49.382Z,6.73
2018-09-15T03:54:20.371Z,7.73
2018-09-15T03:56:49.460Z,6.50
2018-09-15T03:59:18.681Z,6.57
2018-09-15T04:01:48.121Z,7.17
2018-09-15T04:04:17.011Z,6.47
2018-09-15T04:06:45.896Z,6.13
2018-09-15T04:09:15.054Z,7.17
2018-09-15T04:11:43.825Z,7.23
2018-09-15T04:14:12.628Z,6.40
2018-09-15T04:16:41.488Z,6.93
2018-09-15T04:19:10.314Z,8.03
2018-09-15T04:21:39.090Z,7.17
2018-09-15T04:24:08.389Z,8.60
2018-09-15T04:26:37.158Z,11.60
2018-09-15T04:29:05.925Z,7.77
2018-09-15T04:31:34.686Z,7.67
2018-09-15T04:34:03.449Z,7.83
2018-09-15T04:36:32.269Z,7.60
2018-09-15T04:39:01.135Z,7.80
2018-09-15T04:41:30.045Z,7.80
2018-09-15T04:43:58.877Z,8.00
2018-09-15T04:46:27.643Z,8.37
2018-09-15T04:48:56.432Z,8.03
2018-09-15T04:51:25.136Z,8.00
2018-09-15T04:53:54.036Z,8.67
2018-09-15T04:56:22.846Z,7.70
2018-09-15T04:58:51.930Z,9.00
2018-09-15T05:01:20.763Z,7.53
2018-09-15T05:03:49.638Z,8.27
2018-09-15T05:06:18.492Z,8.13
2018-09-15T05:08:47.306Z,7.90
2018-09-15T05:11:16.167Z,8.00
2018-09-15T05:13:44.935Z,7.90
2018-09-15T05:16:14.207Z,8.13
2018-09-15T05:18:43.232Z,8.10
2018-09-15T05:21:11.972Z,8.33
2018-09-15T05:23:40.920Z,8.60
2018-09-15T05:26:09.803Z,7.80
2018-09-15T05:28:38.543Z,8.87
2018-09-15T05:31:07.730Z,7.70
2018-09-15T05:33:36.711Z,7.67
2018-09-15T05:36:05.535Z,7.57
2018-09-15T05:38:34.456Z,7.53
2018-09-15T05:41:03.236Z,7.70
2018-09-15T05:43:32.151Z,6.70
2018-09-15T05:46:01.119Z,7.07
2018-09-15T05:48:29.983Z,7.03
2018-09-15T05:50:58.921Z,7.17
2018-09-15T05:53:28.112Z,6.90
2018-09-15T05:55:57.092Z,6.83
2018-09-15T05:58:25.808Z,7.17
2018-09-15T06:00:55.282Z,7.20
2018-09-15T06:03:24.270Z,6.53
2018-09-15T06:05:53.349Z,6.83
2018-09-15T06:08:22.100Z,7.10
2018-09-15T06:10:50.913Z,7.17
2018-09-15T06:13:19.825Z,7.10
2018-09-15T06:15:49.160Z,6.50
2018-09-15T06:18:18.013Z,6.83
2018-09-15T06:20:46.785Z,6.47
2018-09-15T06:23:16.008Z,6.53
2018-09-15T06:25:44.758Z,7.03
2018-09-15T06:28:13.745Z,5.97
2018-09-15T06:30:42.881Z,6.63
2018-09-15T06:33:11.715Z,6.03
2018-09-15T06:35:40.592Z,6.93
2018-09-15T06:38:10.182Z,6.17
2018-09-15T06:40:39.050Z,5.70
2018-09-15T06:43:08.002Z,6.40
2018-09-15T06:45:36.875Z,7.10
2018-09-15T06:48:05.703Z,7.57
2018-09-15T06:50:34.541Z,6.70
2018-09-15T06:53:03.677Z,6.23
2018-09-15T06:55:32.499Z,6.43
2018-09-15T06:58:01.308Z,5.77
2018-09-15T07:00:30.136Z,5.70
2018-09-15T07:02:58.909Z,6.03
2018-09-15T07:05:27.730Z,5.30
2018-09-15T07:07:56.540Z,5.80
2018-09-15T07:10:25.348Z,5.37
2018-09-15T07:12:54.176Z,5.67
2018-09-15T07:15:22.943Z,5.93
2018-09-15T07:17:51.760Z,6.10
2018-09-15T07:20:20.700Z,5.90
2018-09-15T07:22:50.127Z,6.30
2018-09-15T07:25:18.952Z,5.77
2018-09-15T07:27:47.770Z,6.50
2018-09-15T07:30:16.793Z,7.73
2018-09-15T07:32:45.591Z,7.50
2018-09-15T07:35:14.644Z,6.40
2018-09-15T07:37:43.539Z,6.47
2018-09-15T07:40:12.361Z,6.37
2018-09-15T07:42:41.041Z,6.08
2018-09-15T07:45:10.324Z,6.37
2018-09-15T07:47:39.040Z,6.43
2018-09-15T07:50:07.911Z,7.27
2018-09-15T07:52:37.199Z,8.10
2018-09-15T07:55:05.946Z,6.47
2018-09-15T07:57:34.790Z,6.40
2018-09-15T08:00:04.141Z,6.80
2018-09-15T08:02:32.865Z,6.15
2018-09-15T08:05:01.657Z,6.45
2018-09-15T08:07:30.449Z,6.12
2018-09-15T08:09:59.296Z,5.65
2018-09-15T08:12:28.116Z,6.00
2018-09-15T08:14:56.927Z,5.28
2018-09-15T08:17:25.600Z,5.83
2018-09-15T08:19:54.427Z,5.37
2018-09-15T08:22:23.636Z,5.33
2018-09-15T08:24:52.310Z,5.00
2018-09-15T08:27:21.022Z,5.45
2018-09-15T08:29:50.274Z,5.97
2018-09-15T08:32:19.209Z,4.97
2018-09-15T08:34:48.093Z,4.42
2018-09-15T08:37:17.591Z,3.95
2018-09-15T08:39:46.481Z,4.78
2018-09-15T08:42:15.343Z,4.50
2018-09-15T08:44:44.443Z,3.50
2018-09-15T08:47:13.223Z,3.98
2018-09-15T08:49:42.111Z,4.22
2018-09-15T08:52:11.357Z,3.72
2018-09-15T08:54:40.207Z,3.87
2018-09-15T08:57:09.008Z,3.80
2018-09-15T08:59:38.210Z,4.10
2018-09-15T09:02:11.112Z,3.70
2018-09-15T09:04:39.948Z,3.50
2018-09-15T09:07:08.775Z,3.90
2018-09-15T09:09:37.638Z,4.03
2018-09-15T09:12:06.573Z,3.45
2018-09-15T09:14:35.332Z,3.52
2018-09-15T09:17:04.388Z,3.83
2018-09-15T09:19:33.626Z,3.52
2018-09-15T09:22:02.418Z,3.77
2018-09-15T09:24:31.256Z,3.67
2018-09-15T09:27:00.475Z,4.30
2018-09-15T09:29:29.290Z,3.08
2018-09-15T09:31:58.054Z,3.70
2018-09-15T09:34:26.959Z,3.50
2018-09-15T09:36:55.787Z,3.47
2018-09-15T09:39:24.709Z,3.50
2018-09-15T09:41:53.621Z,3.45
2018-09-15T09:44:22.484Z,2.92
2018-09-15T09:46:51.307Z,3.42
2018-09-15T09:49:20.384Z,3.72
2018-09-15T09:51:49.251Z,3.08
2018-09-15T09:54:17.993Z,3.35
2018-09-15T09:56:47.344Z,3.00
2018-09-15T09:59:16.255Z,2.90
2018-09-15T10:01:50.628Z,3.67
2018-09-15T10:04:19.479Z,3.17
2018-09-15T10:06:48.479Z,2.98
2018-09-15T10:09:17.288Z,3.17
2018-09-15T10:11:46.320Z,2.90
2018-09-15T10:14:15.135Z,2.92
2018-09-15T10:16:44.387Z,2.72
2018-09-15T10:19:13.308Z,2.95
2018-09-15T10:21:42.562Z,3.70
2018-09-15T10:24:11.677Z,3.60
2018-09-15T10:26:40.461Z,3.00
2018-09-15T10:29:10.423Z,3.10
2018-09-15T10:31:39.637Z,2.70
2018-09-15T10:34:08.711Z,3.00
2018-09-15T10:36:37.600Z,3.10
2018-09-15T10:39:08.729Z,2.75
2018-09-15T10:41:37.728Z,2.90
2018-09-15T10:44:06.610Z,2.77
2018-09-15T10:46:35.558Z,2.92
2018-09-15T10:49:04.456Z,2.83
2018-09-15T10:51:33.212Z,3.52
2018-09-15T10:54:02.412Z,2.70
2018-09-15T10:56:31.301Z,3.35
2018-09-15T10:59:00.117Z,2.87
2018-09-15T11:01:29.781Z,3.17
2018-09-15T11:03:58.670Z,2.60
2018-09-15T11:06:27.980Z,3.00
2018-09-15T11:08:57.064Z,2.47
2018-09-15T11:11:25.853Z,3.20
2018-09-15T11:13:54.745Z,3.00
2018-09-15T11:16:23.611Z,3.10
2018-09-15T11:18:52.450Z,3.00
2018-09-15T11:21:21.260Z,3.20
2018-09-15T11:23:50.485Z,3.12
2018-09-15T11:28:58.228Z,3.30
2018-09-15T11:31:27.032Z,2.72
2018-09-15T11:33:55.884Z,3.30
2018-09-15T11:36:25.157Z,4.17
2018-09-15T11:38:54.248Z,2.87
2018-09-15T11:41:23.530Z,3.05
2018-09-15T11:43:52.490Z,3.08
2018-09-15T11:46:21.339Z,2.72
2018-09-15T11:48:50.310Z,3.20
2018-09-15T11:51:19.317Z,5.35
2018-09-15T11:53:49.149Z,6.15
2018-09-15T11:56:19.776Z,6.58
2018-09-15T11:58:48.613Z,4.20
2018-09-15T12:01:20.038Z,3.50
2018-09-15T12:03:49.497Z,3.55
2018-09-15T12:06:18.395Z,3.83
2018-09-15T12:08:47.264Z,3.45
2018-09-15T12:11:16.557Z,2.67
2018-09-15T12:13:45.353Z,2.90
2018-09-15T12:16:14.144Z,3.30
2018-09-15T12:18:43.431Z,3.27
2018-09-15T12:21:13.330Z,3.00
2018-09-15T12:23:42.248Z,2.77
2018-09-15T12:26:11.325Z,2.75
2018-09-15T12:28:40.121Z,3.10
2018-09-15T12:31:09.091Z,3.22
2018-09-15T12:33:38.447Z,3.30
2018-09-15T12:36:07.337Z,3.17
2018-09-15T12:38:36.225Z,2.60
2018-09-15T12:41:05.485Z,3.27
2018-09-15T12:43:34.273Z,2.90
2018-09-15T12:46:03.045Z,2.60
2018-09-15T12:48:32.366Z,2.70
2018-09-15T12:51:01.049Z,2.52
2018-09-15T12:53:29.885Z,2.67
2018-09-15T12:55:59.009Z,2.35
2018-09-15T12:58:27.776Z,2.70
2018-09-15T13:00:56.626Z,3.02
2018-09-15T13:03:25.508Z,2.65
2018-09-15T13:05:54.337Z,2.42
2018-09-15T13:08:23.109Z,3.02
2018-09-15T13:10:51.994Z,3.08
2018-09-15T13:13:20.885Z,2.58
2018-09-15T13:15:49.804Z,2.80
2018-09-15T13:18:18.639Z,2.80
2018-09-15T13:20:47.556Z,3.17
2018-09-15T13:23:16.354Z,2.65
2018-09-15T13:25:45.659Z,2.40
2018-09-15T13:28:14.590Z,2.62
2018-09-15T13:30:43.369Z,2.40
2018-09-15T13:33:12.535Z,3.10
2018-09-15T13:35:41.410Z,2.60
2018-09-15T13:38:10.176Z,2.77
2018-09-15T13:40:39.204Z,2.67
2018-09-15T13:43:07.910Z,2.12
2018-09-15T13:45:37.837Z,2.87
2018-09-15T13:48:07.907Z,2.95
2018-09-15T13:50:36.674Z,2.67
2018-09-15T13:53:05.449Z,2.65
2018-09-15T13:55:34.785Z,3.17
2018-09-15T13:58:04.406Z,2.42
2018-09-15T14:00:34.412Z,2.60
2018-09-15T14:03:03.237Z,2.70
2018-09-15T14:05:32.091Z,2.30
2018-09-15T14:08:00.965Z,2.25
2018-09-15T14:10:29.868Z,2.67
2018-09-15T14:12:58.721Z,2.35
2018-09-15T14:15:27.569Z,2.62
2018-09-15T14:17:56.806Z,2.50
2018-09-15T14:20:25.646Z,3.08
2018-09-15T14:22:54.457Z,2.83
2018-09-15T14:25:23.443Z,2.80
2018-09-15T14:27:52.168Z,2.85
2018-09-15T14:30:21.035Z,2.70
2018-09-15T14:32:49.916Z,2.67
2018-09-15T14:35:18.914Z,3.05
2018-09-15T14:37:47.797Z,3.42
2018-09-15T14:40:17.178Z,2.70
2018-09-15T14:42:46.059Z,3.27
2018-09-15T14:45:14.856Z,3.05
2018-09-15T14:47:43.695Z,2.87
2018-09-15T14:50:12.496Z,3.00
2018-09-15T14:52:41.349Z,2.92
2018-09-15T14:55:10.327Z,2.52
2018-09-15T14:57:39.124Z,2.95
2018-09-15T15:00:08.856Z,2.75
2018-09-15T15:02:38.213Z,3.27
2018-09-15T15:05:07.190Z,2.98
2018-09-15T15:07:36.090Z,3.30
2018-09-15T15:10:05.489Z,3.20
2018-09-15T15:12:34.349Z,3.37
2018-09-15T15:15:03.140Z,2.92
2018-09-15T15:17:31.921Z,3.33
2018-09-15T15:20:01.112Z,3.42
2018-09-15T15:22:30.040Z,3.62
2018-09-15T15:24:58.848Z,3.08
2018-09-15T15:27:27.776Z,3.05
2018-09-15T15:29:56.585Z,3.62
2018-09-15T15:32:25.703Z,3.30
2018-09-15T15:34:54.617Z,3.33
2018-09-15T15:37:23.403Z,3.37
2018-09-15T15:39:52.285Z,3.47
2018-09-15T15:42:21.283Z,3.72
2018-09-15T15:44:50.198Z,3.77
2018-09-15T15:47:19.421Z,3.47
2018-09-15T15:49:48.795Z,4.10
2018-09-15T15:52:17.610Z,3.60
2018-09-15T15:54:46.931Z,3.67
2018-09-15T15:57:15.648Z,3.83
2018-09-15T15:59:44.525Z,3.70
2018-09-15T16:02:13.746Z,3.17
2018-09-15T16:04:42.510Z,4.62
2018-09-15T16:07:11.408Z,4.30
2018-09-15T16:09:40.710Z,3.92
2018-09-15T16:12:09.497Z,4.17
2018-09-15T16:14:38.211Z,4.47
2018-09-15T16:17:08.301Z,4.42
2018-09-15T16:19:37.214Z,3.98
2018-09-15T16:22:06.148Z,3.98
2018-09-15T16:24:35.427Z,3.87
2018-09-15T16:27:04.317Z,4.17
2018-09-15T16:29:33.203Z,4.35
2018-09-15T16:32:02.488Z,4.10
2018-09-15T16:34:31.281Z,4.40
2018-09-15T16:37:00.105Z,4.58
2018-09-15T16:39:28.956Z,12.10
2018-09-15T16:41:57.739Z,8.43
2018-09-15T16:44:26.596Z,14.95
2018-09-15T16:46:55.517Z,13.70
2018-09-15T16:49:24.417Z,12.03
2018-09-15T16:51:53.289Z,14.65
2018-09-15T16:54:22.516Z,9.25
2018-09-15T16:56:51.457Z,6.85
2018-09-15T16:59:20.362Z,7.47
2018-09-15T17:01:49.772Z,6.30
2018-09-15T17:04:18.660Z,6.28
2018-09-15T17:06:47.497Z,5.05
2018-09-15T17:09:16.637Z,6.85
2018-09-15T17:11:45.626Z,6.97
2018-09-15T17:14:14.570Z,7.28
2018-09-15T17:16:43.676Z,6.85
2018-09-15T17:19:12.433Z,5.53
2018-09-15T17:21:41.323Z,5.85
2018-09-15T17:24:10.237Z,6.17
2018-09-15T17:26:39.007Z,5.95
2018-09-15T17:29:07.884Z,6.22
2018-09-15T17:31:37.016Z,6.03
2018-09-15T17:34:05.858Z,6.22
2018-09-15T17:36:34.796Z,6.37
2018-09-15T17:39:05.322Z,6.75
2018-09-15T17:41:34.279Z,7.35
2018-09-15T17:44:03.114Z,7.97
2018-09-15T17:46:32.203Z,8.00
2018-09-15T17:49:01.100Z,7.70
2018-09-15T17:51:30.049Z,8.25
2018-09-15T17:53:59.005Z,8.85
2018-09-15T17:56:27.920Z,8.13
2018-09-15T17:58:56.890Z,9.88
2018-09-15T18:01:25.748Z,9.75
2018-09-15T18:03:54.525Z,9.65
2018-09-15T18:06:23.361Z,9.85
2018-09-15T18:08:53.425Z,8.90
2018-09-15T18:11:22.721Z,8.73
2018-09-15T18:13:51.475Z,13.48
2018-09-15T18:16:20.723Z,10.78
2018-09-15T18:18:49.616Z,12.05
2018-09-15T18:21:18.503Z,8.50
2018-09-15T18:23:47.568Z,7.90
2018-09-15T18:26:16.513Z,8.25
2018-09-15T18:28:45.320Z,7.85
2018-09-15T18:31:14.425Z,8.63
2018-09-15T18:33:43.200Z,8.25
2018-09-15T18:36:12.124Z,7.50
2018-09-15T18:38:41.487Z,7.97
2018-09-15T18:41:10.313Z,8.93
2018-09-15T18:43:41.364Z,9.13
2018-09-15T18:46:10.170Z,8.58
2018-09-15T18:48:39.001Z,7.73
2018-09-15T18:51:08.192Z,7.47
2018-09-15T18:53:37.457Z,7.17
2018-09-15T18:56:06.865Z,7.40
2018-09-15T18:58:36.072Z,7.47
2018-09-15T19:01:04.897Z,7.55
2018-09-15T19:03:33.748Z,7.35
2018-09-15T19:06:02.910Z,7.23
2018-09-15T19:08:31.556Z,7.17
2018-09-15T19:11:00.423Z,7.23
2018-09-15T19:13:29.215Z,7.80
2018-09-15T19:15:58.051Z,7.80
2018-09-15T19:18:26.873Z,7.57
2018-09-15T19:20:56.100Z,8.20
2018-09-15T19:23:25.078Z,8.13
2018-09-15T19:25:53.965Z,7.17
2018-09-15T19:28:22.848Z,7.40
2018-09-15T19:30:51.588Z,7.03
2018-09-15T19:33:20.396Z,7.80
2018-09-15T19:35:49.315Z,8.10
2018-09-15T19:38:18.123Z,7.20
2018-09-15T19:40:46.985Z,7.43
2018-09-15T19:43:16.305Z,7.20
2018-09-15T19:45:45.460Z,7.00
2018-09-15T19:48:14.409Z,8.20
2018-09-15T19:50:43.365Z,7.37
2018-09-15T19:53:12.041Z,8.07
2018-09-15T19:55:41.181Z,8.20
2018-09-15T19:58:10.116Z,7.83
2018-09-15T20:00:38.928Z,8.63
2018-09-15T20:03:07.879Z,7.87
2018-09-15T20:05:36.669Z,8.15
2018-09-15T20:08:05.542Z,8.43
2018-09-15T20:10:34.328Z,8.33
2018-09-15T20:13:03.664Z,8.27
2018-09-15T20:15:31.148Z,8.60
2018-09-15T20:17:59.220Z,8.10
2018-09-15T20:20:26.943Z,7.80
2018-09-15T20:22:56.481Z,7.43
2018-09-15T20:25:25.399Z,7.87
2018-09-15T20:27:54.348Z,8.37
2018-09-15T20:30:23.228Z,8.47
2018-09-15T20:32:51.966Z,8.37
2018-09-15T20:35:21.085Z,9.28
2018-09-15T20:37:49.939Z,8.50
2018-09-15T20:40:18.779Z,9.07
2018-09-15T20:42:47.668Z,8.60
2018-09-15T20:45:16.524Z,9.20
2018-09-15T20:47:45.435Z,8.87
2018-09-15T20:50:14.615Z,9.10
2018-09-15T20:52:43.476Z,8.03
2018-09-15T20:55:12.379Z,8.13
2018-09-15T20:57:41.702Z,9.03
2018-09-15T21:00:11.189Z,8.97
2018-09-15T21:02:40.516Z,9.40
2018-09-15T21:05:09.403Z,8.60
2018-09-15T21:07:38.301Z,8.90
2018-09-15T21:10:07.598Z,9.30
2018-09-15T21:12:36.932Z,7.90
2018-09-15T21:15:06.008Z,9.03
2018-09-15T21:17:34.880Z,8.40
2018-09-15T21:20:03.928Z,8.77
2018-09-15T21:22:32.815Z,9.37
2018-09-15T21:25:01.813Z,9.33
2018-09-15T21:27:31.020Z,8.83
2018-09-15T21:29:59.916Z,9.37
2018-09-15T21:32:28.651Z,10.10
2018-09-15T21:34:58.586Z,9.90
2018-09-15T21:37:27.452Z,9.80
2018-09-15T21:39:56.280Z,9.07
2018-09-15T21:42:25.592Z,9.70
2018-09-15T21:44:54.416Z,9.80
2018-09-15T21:47:23.257Z,9.37
2018-09-15T21:49:52.464Z,9.70
2018-09-15T21:52:21.288Z,10.03
2018-09-15T21:54:50.149Z,10.30
2018-09-15T21:57:19.207Z,8.73
2018-09-15T21:59:48.132Z,10.18
2018-09-15T22:02:16.925Z,10.00
2018-09-15T22:04:45.768Z,9.87
2018-09-15T22:07:14.547Z,9.97
2018-09-15T22:09:43.341Z,9.67
2018-09-15T22:12:12.113Z,9.47
2018-09-15T22:14:40.877Z,10.43
2018-09-15T22:17:09.729Z,10.13
2018-09-15T22:19:38.563Z,10.37
2018-09-15T22:22:07.453Z,11.03
2018-09-15T22:24:36.252Z,9.60
2018-09-15T22:27:05.065Z,9.63
2018-09-15T22:29:33.807Z,9.80
2018-09-15T22:32:02.645Z,9.30
2018-09-15T22:34:31.875Z,9.70
2018-09-15T22:37:00.642Z,10.30
2018-09-15T22:39:29.589Z,10.13
2018-09-15T22:41:58.861Z,10.30
2018-09-15T22:44:27.748Z,9.73
2018-09-15T22:46:56.649Z,10.60
2018-09-15T22:49:25.886Z,10.30
2018-09-15T22:51:54.790Z,10.27
2018-09-15T22:54:23.639Z,10.53
2018-09-15T22:56:52.488Z,10.33
2018-09-15T22:59:21.341Z,9.57
2018-09-15T23:01:50.231Z,10.17
2018-09-15T23:04:19.497Z,10.17
2018-09-15T23:06:48.304Z,9.93
2018-09-15T23:09:17.191Z,10.00
2018-09-15T23:11:46.345Z,10.20
2018-09-15T23:14:15.217Z,9.80
2018-09-15T23:16:43.992Z,9.87
2018-09-15T23:19:13.218Z,9.97
2018-09-15T23:21:42.028Z,9.70
2018-09-15T23:24:10.928Z,10.30
2018-09-15T23:26:40.058Z,10.30
2018-09-15T23:29:08.964Z,10.00
2018-09-15T23:31:37.772Z,10.00
2018-09-15T23:34:06.819Z,10.50
2018-09-15T23:36:35.684Z,10.20
2018-09-15T23:39:06.368Z,9.70
2018-09-15T23:41:35.459Z,9.20
2018-09-15T23:44:04.384Z,10.43
2018-09-15T23:46:33.107Z,9.90
2018-09-15T23:49:02.336Z,10.60
2018-09-15T23:51:31.219Z,10.50
2018-09-15T23:54:00.085Z,10.53
2018-09-15T23:56:28.977Z,9.27
2018-09-15T23:58:57.870Z,9.80
